Lucknow / Amausi, India

5:09 PM IST on February 24, 2017 (GMT +0530)
Lucknow | | Change Station

Elev 420 ft 26.75 °N, 80.88 °E | Updated 39 minutes ago

Haze
Haze
79 °F
Feels Like 79 °F
N
9
Wind Variable Wind from WNW

Today
High -- | Low -- °F
--% Chance of Precip.
Yesterday
High -- | Low -- °F
Precip. -- in
Pressure 29.89 in
Visibility 1.9 miles
Clouds
Dew Point 41 °F
Humidity 26%
Rainfall 0.00 in
Snow Depth Not available.
6:35 AM 6:04 PM
Waning Crescent, 5% visible
METAR VILK 241100Z 29008KT 3000 HZ NSC 26/05 Q1012 NOSIG
Pressure 29.89 in
Visibility 1.9 miles
Clouds
Dew Point 41 °F
Humidity 26%
Rainfall 0.00 in
Snow Depth Not available.
6:35 AM 6:04 PM
Waning Crescent, 5% visible
METAR VILK 241100Z 29008KT 3000 HZ NSC 26/05 Q1012 NOSIG

Get Your Daily Forecast Email!

Thanks for signing up!

Be on the lookout for a verification email in your inbox.

You'll start receiving the daily forecast at 8 AM.

×

10-Day Weather Forecast

No radar image for this location.
×

Almanac

Astronomy

Feb. 24, 2017 Rise Set
Actual Time
Civil Twilight
Nautical Twilight
Astronomical Twilight
Moon
Length of Visible Light
Length of Day
Tomorrow will be .
, % of the Moon is Illuminated

Today's Extremes

Country Highs Country Lows

Community

WunderPhotos

Upload Photos

1,962,540 photos uploaded!

WunderBlog® & News

Nearby

Air Quality

  Air Quality AQ Index Pollutant
Not available.

Snow Depth

Station Depth Elevation

Earthquake Activity

City Distance Mag. Time & Date
Minimum magnitude displayed is 2.5.

Coastal Water Temperatures

Place Temperature

Stations

Nearby Weather Stations

Station Location Temp. Windchill Dew Point Humidity Wind Precip. Elev Updated Type